createdAt,value
2018-09-05T00:01:24.389Z,33.48
2018-09-05T00:03:57.803Z,33.55
2018-09-05T00:06:31.286Z,33.67
2018-09-05T00:09:07.064Z,33.20
2018-09-05T00:11:40.533Z,33.50
2018-09-05T00:14:14.064Z,33.42
2018-09-05T00:16:47.467Z,33.53
2018-09-05T00:19:20.868Z,33.20
2018-09-05T00:21:54.290Z,33.65
2018-09-05T00:24:27.703Z,33.80
2018-09-05T00:27:01.151Z,33.67
2018-09-05T00:29:34.683Z,32.73
2018-09-05T00:32:08.156Z,33.67
2018-09-05T00:34:41.611Z,32.78
2018-09-05T00:37:15.064Z,33.53
2018-09-05T00:39:48.494Z,33.67
2018-09-05T00:42:21.938Z,33.53
2018-09-05T00:44:55.338Z,33.67
2018-09-05T00:47:28.771Z,33.25
2018-09-05T00:50:02.197Z,34.98
2018-09-05T00:52:35.634Z,32.50
2018-09-05T00:55:10.152Z,32.80
2018-09-05T00:57:44.759Z,33.10
2018-09-05T01:00:18.183Z,33.00
2018-09-05T01:02:51.574Z,33.33
2018-09-05T01:05:24.962Z,32.98
2018-09-05T01:07:58.434Z,33.75
2018-09-05T01:10:31.833Z,33.48
2018-09-05T01:13:05.248Z,33.75
2018-09-05T01:15:39.859Z,33.13
2018-09-05T01:18:13.254Z,32.98
2018-09-05T01:20:46.738Z,33.92
2018-09-05T01:23:20.138Z,33.53
2018-09-05T01:25:53.531Z,32.63
2018-09-05T01:28:26.930Z,33.25
2018-09-05T01:31:00.457Z,33.00
2018-09-05T01:33:35.094Z,33.23
2018-09-05T01:36:13.902Z,32.95
2018-09-05T01:38:47.347Z,32.50
2018-09-05T01:41:20.810Z,33.05
2018-09-05T01:43:55.326Z,33.78
2018-09-05T01:46:28.767Z,33.50
2018-09-05T01:49:02.223Z,33.18
2018-09-05T01:51:35.662Z,32.98
2018-09-05T01:54:09.123Z,33.23
2018-09-05T01:56:42.558Z,33.38
2018-09-05T01:59:16.010Z,33.18
2018-09-05T02:01:49.898Z,33.38
2018-09-05T02:04:23.402Z,33.53
2018-09-05T02:06:56.892Z,33.45
2018-09-05T02:09:30.367Z,33.00
2018-09-05T02:12:03.934Z,33.13
2018-09-05T02:14:37.391Z,33.58
2018-09-05T02:17:10.839Z,34.55
2018-09-05T02:19:44.362Z,33.67
2018-09-05T02:22:17.790Z,33.95
2018-09-05T02:24:51.252Z,33.02
2018-09-05T02:27:24.706Z,34.13
2018-09-05T02:29:58.198Z,33.40
2018-09-05T02:32:31.647Z,32.88
2018-09-05T02:35:05.463Z,33.75
2018-09-05T02:37:40.030Z,34.33
2018-09-05T02:40:13.634Z,33.65
2018-09-05T02:42:47.048Z,35.08
2018-09-05T02:45:20.487Z,34.58
2018-09-05T02:47:53.898Z,34.23
2018-09-05T02:50:27.349Z,33.15
2018-09-05T02:53:01.807Z,33.90
2018-09-05T02:55:40.452Z,33.50
2018-09-05T02:58:13.859Z,33.83
2018-09-05T03:00:47.331Z,33.40
2018-09-05T03:03:20.762Z,33.25
2018-09-05T03:05:54.366Z,33.95
2018-09-05T03:08:27.783Z,34.08
2018-09-05T03:11:01.220Z,35.25
2018-09-05T03:13:34.686Z,34.85
2018-09-05T03:16:08.126Z,34.58
2018-09-05T03:18:41.547Z,33.70
2018-09-05T03:21:14.987Z,34.10
2018-09-05T03:23:48.395Z,34.25
2018-09-05T03:26:21.835Z,33.30
2018-09-05T03:28:55.239Z,33.73
2018-09-05T03:31:28.711Z,34.18
2018-09-05T03:34:02.263Z,34.85
2018-09-05T03:36:35.866Z,34.30
2018-09-05T03:39:10.587Z,33.95
2018-09-05T03:41:44.031Z,35.90
2018-09-05T03:44:17.635Z,35.17
2018-09-05T03:46:51.115Z,34.63
2018-09-05T03:49:24.513Z,34.75
2018-09-05T03:51:57.929Z,34.30
2018-09-05T03:54:31.324Z,33.55
2018-09-05T03:57:04.848Z,34.48
2018-09-05T03:59:38.239Z,34.83
2018-09-05T04:02:11.644Z,35.65
2018-09-05T04:04:45.043Z,34.55
2018-09-05T04:07:19.525Z,35.17
2018-09-05T04:09:52.906Z,35.75
2018-09-05T04:12:26.763Z,35.28
2018-09-05T04:15:00.146Z,35.03
2018-09-05T04:17:33.562Z,35.25
2018-09-05T04:20:07.670Z,35.85
2018-09-05T04:22:41.099Z,34.53
2018-09-05T04:25:14.546Z,35.78
2018-09-05T04:27:47.992Z,35.78
2018-09-05T04:30:21.487Z,35.05
2018-09-05T04:32:54.951Z,34.73
2018-09-05T04:35:28.415Z,34.03
2018-09-05T04:38:01.842Z,35.10
2018-09-05T04:40:35.270Z,35.80
2018-09-05T04:43:08.763Z,35.35
2018-09-05T04:45:42.178Z,35.08
2018-09-05T04:48:15.641Z,34.33
2018-09-05T04:50:49.072Z,34.95
2018-09-05T04:53:22.739Z,35.05
2018-09-05T04:55:56.164Z,34.67
2018-09-05T04:58:29.633Z,35.40
2018-09-05T05:01:04.168Z,34.63
2018-09-05T05:03:37.719Z,34.83
2018-09-05T05:06:11.161Z,34.98
2018-09-05T05:08:44.586Z,35.52
2018-09-05T05:11:18.030Z,35.60
2018-09-05T05:13:51.485Z,36.05
2018-09-05T05:16:24.942Z,34.88
2018-09-05T05:18:58.347Z,36.38
2018-09-05T05:21:31.823Z,35.63
2018-09-05T05:24:05.262Z,35.65
2018-09-05T05:26:38.705Z,35.63
2018-09-05T05:29:12.191Z,36.85
2018-09-05T05:31:45.687Z,36.08
2018-09-05T05:34:19.468Z,34.73
2018-09-05T05:36:52.931Z,34.70
2018-09-05T05:39:26.431Z,35.65
2018-09-05T05:41:59.872Z,35.43
2018-09-05T05:44:33.315Z,36.45
2018-09-05T05:47:06.771Z,36.05
2018-09-05T05:49:40.223Z,36.45
2018-09-05T05:52:13.682Z,36.17
2018-09-05T05:54:47.075Z,36.38
2018-09-05T05:57:20.503Z,35.75
2018-09-05T05:59:53.888Z,35.38
2018-09-05T06:02:27.285Z,36.10
2018-09-05T06:05:00.695Z,34.75
2018-09-05T06:07:34.110Z,36.70
2018-09-05T06:10:07.556Z,35.55
2018-09-05T06:12:40.963Z,35.92
2018-09-05T06:15:14.350Z,36.15
2018-09-05T06:17:47.785Z,36.20
2018-09-05T06:20:21.243Z,37.73
2018-09-05T06:22:54.644Z,36.80
2018-09-05T06:25:28.047Z,36.33
2018-09-05T06:28:01.460Z,36.17
2018-09-05T06:30:35.100Z,36.15
2018-09-05T06:33:08.513Z,36.80
2018-09-05T06:35:41.952Z,37.58
2018-09-05T06:38:20.278Z,37.48
2018-09-05T06:40:54.019Z,36.88
2018-09-05T06:43:27.435Z,37.38
2018-09-05T06:46:00.863Z,37.25
2018-09-05T06:48:34.303Z,36.55
2018-09-05T06:51:08.437Z,36.13
2018-09-05T06:53:41.859Z,36.73
2018-09-05T06:56:15.248Z,37.03
2018-09-05T06:58:48.673Z,36.85
2018-09-05T07:01:22.130Z,36.15
2018-09-05T07:03:55.566Z,36.95
2018-09-05T07:06:28.959Z,36.03
2018-09-05T07:09:02.392Z,37.13
2018-09-05T07:11:35.828Z,36.65
2018-09-05T07:14:09.368Z,36.88
2018-09-05T07:16:42.704Z,36.53
2018-09-05T07:19:16.141Z,36.77
2018-09-05T07:21:49.545Z,37.58
2018-09-05T07:24:22.975Z,36.83
2018-09-05T07:26:56.359Z,38.10
2018-09-05T07:29:29.767Z,35.80
2018-09-05T07:32:03.160Z,37.25
2018-09-05T07:34:36.567Z,37.53
2018-09-05T07:37:09.976Z,37.75
2018-09-05T07:39:43.408Z,37.25
2018-09-05T07:42:17.830Z,37.50
2018-09-05T07:44:51.268Z,38.53
2018-09-05T07:47:24.954Z,37.78
2018-09-05T07:49:58.377Z,37.73
2018-09-05T07:52:31.811Z,37.50
2018-09-05T07:55:05.340Z,37.17
2018-09-05T07:57:38.738Z,37.40
2018-09-05T08:00:12.239Z,37.53
2018-09-05T08:02:45.661Z,38.70
2018-09-05T08:05:19.067Z,37.17
2018-09-05T08:07:52.503Z,37.15
2018-09-05T08:10:25.908Z,37.30
2018-09-05T08:12:59.309Z,37.67
2018-09-05T08:15:32.728Z,37.38
2018-09-05T08:18:06.216Z,37.35
2018-09-05T08:20:39.610Z,37.83
2018-09-05T08:23:13.261Z,35.95
2018-09-05T08:25:46.685Z,37.10
2018-09-05T08:28:20.136Z,38.15
2018-09-05T08:30:53.552Z,37.67
2018-09-05T08:33:26.934Z,37.20
2018-09-05T08:36:00.705Z,37.58
2018-09-05T08:38:33.960Z,37.73
2018-09-05T08:41:08.739Z,37.93
2018-09-05T08:43:42.287Z,37.95
2018-09-05T08:46:15.591Z,38.25
2018-09-05T08:48:48.979Z,38.20
2018-09-05T09:15:47.271Z,37.70
2018-09-05T09:18:21.751Z,37.00
2018-09-05T09:20:55.139Z,38.00
2018-09-05T09:23:28.557Z,37.40
2018-09-05T09:26:02.006Z,37.42
2018-09-05T09:28:35.448Z,38.17
2018-09-05T09:31:08.872Z,37.33
2018-09-05T09:33:42.274Z,37.65
2018-09-05T09:36:15.690Z,37.58
2018-09-05T09:38:49.843Z,36.83
2018-09-05T09:41:23.252Z,38.30
2018-09-05T09:43:56.669Z,37.53
2018-09-05T09:46:30.061Z,38.23
2018-09-05T09:49:03.526Z,38.33
2018-09-05T09:51:36.931Z,38.40
2018-09-05T09:54:10.352Z,38.65
2018-09-05T09:56:43.771Z,38.02
2018-09-05T09:59:17.161Z,37.90
2018-09-05T10:01:55.774Z,37.13
2018-09-05T10:04:37.618Z,37.15
2018-09-05T10:07:16.276Z,37.60
2018-09-05T10:09:53.879Z,38.00
2018-09-05T10:12:32.491Z,37.95
2018-09-05T10:15:12.558Z,37.30
2018-09-05T10:17:50.212Z,36.95
2018-09-05T10:20:23.603Z,36.68
2018-09-05T10:22:57.019Z,37.13
2018-09-05T10:25:30.451Z,36.70
2018-09-05T10:28:03.879Z,37.45
2018-09-05T10:30:37.282Z,37.08
2018-09-05T10:33:10.703Z,37.28
2018-09-05T10:35:44.122Z,37.05
2018-09-05T10:38:17.532Z,37.83
2018-09-05T10:40:50.939Z,37.40
2018-09-05T10:43:24.355Z,37.50
2018-09-05T10:45:57.755Z,37.98
2018-09-05T10:48:31.204Z,38.60
2018-09-05T10:51:04.806Z,37.38
2018-09-05T10:53:38.215Z,37.93
2018-09-05T10:56:11.598Z,37.83
2018-09-05T10:58:45.155Z,37.73
2018-09-05T11:01:18.592Z,38.30
2018-09-05T11:03:53.032Z,38.35
2018-09-05T11:06:26.635Z,38.70
2018-09-05T11:09:00.128Z,38.55
2018-09-05T11:11:33.528Z,38.05
2018-09-05T11:14:07.356Z,38.25
2018-09-05T11:16:41.091Z,38.60
2018-09-05T11:19:16.612Z,38.30
2018-09-05T11:21:50.012Z,38.15
2018-09-05T11:24:23.442Z,38.30
2018-09-05T11:26:56.827Z,38.17
2018-09-05T11:29:31.746Z,38.70
2018-09-05T11:32:05.139Z,38.33
2018-09-05T11:34:40.255Z,38.53
2018-09-05T11:37:13.659Z,39.18
2018-09-05T11:39:48.838Z,38.98
2018-09-05T11:42:22.227Z,38.88
2018-09-05T11:44:56.414Z,37.70
2018-09-05T11:47:29.868Z,38.30
2018-09-05T11:50:03.440Z,38.55
2018-09-05T11:52:37.938Z,38.42
2018-09-05T11:55:11.359Z,38.40
2018-09-05T11:57:44.791Z,39.10
2018-09-05T12:00:18.222Z,39.35
2018-09-05T12:02:51.604Z,38.90
2018-09-05T12:05:25.011Z,38.85
2018-09-05T12:07:59.513Z,39.40
2018-09-05T12:10:32.930Z,38.60
2018-09-05T12:13:06.319Z,39.60
2018-09-05T12:15:39.731Z,40.03
2018-09-05T12:18:13.122Z,39.80
2018-09-05T12:20:47.639Z,39.25
2018-09-05T12:23:21.034Z,38.90
2018-09-05T12:25:54.482Z,38.65
2018-09-05T12:28:28.983Z,38.75
2018-09-05T12:31:02.403Z,38.40
2018-09-05T12:33:35.802Z,39.53
2018-09-05T12:36:09.330Z,39.50
2018-09-05T12:38:42.718Z,39.85
2018-09-05T12:41:17.164Z,38.55
2018-09-05T12:43:50.571Z,39.80
2018-09-05T12:46:23.991Z,39.20
2018-09-05T12:48:57.386Z,39.73
2018-09-05T12:51:31.008Z,38.95
2018-09-05T12:54:04.831Z,39.70
2018-09-05T12:56:38.259Z,39.98
2018-09-05T12:59:11.745Z,39.73
2018-09-05T13:01:45.153Z,39.27
2018-09-05T13:04:18.588Z,38.88
2018-09-05T13:06:52.026Z,39.63
2018-09-05T13:09:25.443Z,39.25
2018-09-05T13:11:58.880Z,38.92
2018-09-05T13:14:32.275Z,39.63
2018-09-05T13:17:05.703Z,39.45
2018-09-05T13:19:41.159Z,39.45
2018-09-05T13:22:14.582Z,39.15
2018-09-05T13:24:47.974Z,39.23
2018-09-05T13:27:21.413Z,39.30
2018-09-05T13:29:54.834Z,38.95
2018-09-05T13:32:28.287Z,40.35
2018-09-05T13:35:05.231Z,39.03
2018-09-05T13:37:38.743Z,38.88
2018-09-05T13:40:13.175Z,37.58
2018-09-05T13:42:46.575Z,38.65
2018-09-05T13:45:19.966Z,38.60
2018-09-05T13:47:53.391Z,38.45
2018-09-05T13:50:27.234Z,37.83
2018-09-05T13:53:01.685Z,39.03
2018-09-05T13:55:35.091Z,38.25
2018-09-05T13:58:08.508Z,38.48
2018-09-05T14:00:42.045Z,38.70
2018-09-05T14:03:15.534Z,38.45
2018-09-05T14:05:50.996Z,39.03
2018-09-05T14:08:25.043Z,38.33
2018-09-05T14:10:59.605Z,37.45
2018-09-05T14:13:33.059Z,38.10
2018-09-05T14:16:06.650Z,37.90
2018-09-05T14:18:40.051Z,38.33
2018-09-05T14:21:13.483Z,37.33
2018-09-05T14:23:46.955Z,38.58
2018-09-05T14:26:20.349Z,37.80
2018-09-05T14:28:53.791Z,38.50
2018-09-05T14:31:27.215Z,37.42
2018-09-05T14:34:00.675Z,37.88
2018-09-05T14:36:36.228Z,37.78
2018-09-05T14:39:13.607Z,37.23
2018-09-05T14:41:47.036Z,39.10
2018-09-05T14:44:20.443Z,37.93
2018-09-05T14:46:53.847Z,37.70
2018-09-05T14:49:27.255Z,36.85
2018-09-05T14:52:00.663Z,37.35
2018-09-05T14:54:34.075Z,40.88
2018-09-05T14:57:07.519Z,37.58
2018-09-05T14:59:40.959Z,36.00
2018-09-05T15:02:14.347Z,36.65
2018-09-05T15:04:47.770Z,36.85
2018-09-05T15:07:21.216Z,36.53
2018-09-05T15:09:56.716Z,36.42
2018-09-05T15:12:30.115Z,36.45
2018-09-05T15:15:03.612Z,35.95
2018-09-05T15:17:37.008Z,35.23
2018-09-05T15:20:18.158Z,36.13
2018-09-05T15:22:51.556Z,36.03
2018-09-05T15:25:24.991Z,36.00
2018-09-05T15:27:58.389Z,37.03
2018-09-05T15:30:34.937Z,36.58
2018-09-05T15:33:08.971Z,36.75
2018-09-05T15:35:42.395Z,37.75
2018-09-05T15:38:15.843Z,38.08
2018-09-05T15:40:49.308Z,38.02
2018-09-05T15:43:23.271Z,37.23
2018-09-05T15:45:56.756Z,38.00
2018-09-05T15:48:30.220Z,37.35
2018-09-05T15:51:03.669Z,37.13
2018-09-05T15:53:37.072Z,36.93
2018-09-05T15:56:10.531Z,37.35
2018-09-05T15:58:47.334Z,37.23
2018-09-05T16:01:20.761Z,38.92
2018-09-05T16:03:54.198Z,37.03
2018-09-05T16:06:27.610Z,37.05
2018-09-05T16:09:01.204Z,36.60
2018-09-05T16:11:34.616Z,35.90
2018-09-05T16:14:12.488Z,36.40
2018-09-05T16:16:45.897Z,36.70
2018-09-05T16:19:19.305Z,35.70
2018-09-05T16:21:52.746Z,35.60
2018-09-05T16:24:26.149Z,35.45
2018-09-05T16:26:59.572Z,36.45
2018-09-05T16:29:32.985Z,35.88
2018-09-05T16:32:06.494Z,35.00
2018-09-05T16:34:39.929Z,35.30
2018-09-05T16:40:26.138Z,35.65
2018-09-05T16:43:33.514Z,35.92
2018-09-05T16:46:07.629Z,35.13
2018-09-05T16:48:41.068Z,35.40
2018-09-05T16:51:17.263Z,35.35
2018-09-05T16:54:02.119Z,36.05
2018-09-05T16:56:41.923Z,35.73
2018-09-05T16:59:15.339Z,35.78
2018-09-05T17:01:49.815Z,35.28
2018-09-05T17:04:24.319Z,35.73
2018-09-05T17:06:57.763Z,36.15
2018-09-05T17:09:31.166Z,36.73
2018-09-05T17:12:05.665Z,36.05
2018-09-05T17:14:39.096Z,36.40
2018-09-05T17:17:12.549Z,35.95
2018-09-05T17:19:45.942Z,36.33
2018-09-05T17:22:19.357Z,35.95
2018-09-05T17:24:52.802Z,35.73
2018-09-05T17:27:26.350Z,35.15
2018-09-05T17:29:59.764Z,35.83
2018-09-05T17:32:38.970Z,35.98
2018-09-05T17:35:12.417Z,36.90
2018-09-05T17:37:45.847Z,36.77
2018-09-05T17:40:19.328Z,36.93
2018-09-05T17:42:53.066Z,37.55
2018-09-05T17:45:26.487Z,37.13
2018-09-05T17:47:59.967Z,36.70
2018-09-05T17:50:33.360Z,36.38
2018-09-05T17:53:06.808Z,37.40
2018-09-05T17:55:40.213Z,36.13
2018-09-05T17:58:13.695Z,36.42
2018-09-05T18:00:47.128Z,36.80
2018-09-05T18:03:20.543Z,36.73
2018-09-05T18:05:53.939Z,36.03
2018-09-05T18:08:27.507Z,36.05
2018-09-05T18:11:00.896Z,36.23
2018-09-05T18:13:35.351Z,35.90
2018-09-05T18:16:08.785Z,36.10
2018-09-05T18:18:43.492Z,36.30
2018-09-05T18:21:16.886Z,36.48
2018-09-05T18:23:50.305Z,36.60
2018-09-05T18:26:23.772Z,36.90
2018-09-05T18:28:57.172Z,36.35
2018-09-05T18:31:31.666Z,36.20
2018-09-05T18:34:05.084Z,37.13
2018-09-05T18:36:38.497Z,35.90
2018-09-05T18:39:11.900Z,35.80
2018-09-05T18:41:45.368Z,36.17
2018-09-05T18:44:18.775Z,36.42
2018-09-05T18:46:52.254Z,36.53
2018-09-05T18:49:25.683Z,36.68
2018-09-05T18:51:59.283Z,36.42
2018-09-05T18:54:32.692Z,36.95
2018-09-05T18:57:06.100Z,37.55
2018-09-05T18:59:41.630Z,37.05
2018-09-05T19:02:15.114Z,36.10
2018-09-05T19:04:48.626Z,37.00
2018-09-05T19:07:22.082Z,36.73
2018-09-05T19:09:55.650Z,36.25
2018-09-05T19:12:29.038Z,35.92
2018-09-05T19:15:02.442Z,34.60
2018-09-05T19:17:35.842Z,34.30
2018-09-05T19:20:09.322Z,34.27
2018-09-05T19:22:42.716Z,34.35
2018-09-05T19:25:16.140Z,34.80
2018-09-05T19:27:49.735Z,34.20
2018-09-05T19:30:23.222Z,33.67
2018-09-05T19:32:56.614Z,33.90
2018-09-05T19:35:30.090Z,33.15
2018-09-05T19:38:03.510Z,34.03
2018-09-05T19:40:39.033Z,34.60
2018-09-05T19:43:12.434Z,33.55
2018-09-05T19:45:45.945Z,34.33
2018-09-05T19:48:19.415Z,34.05
2018-09-05T19:50:52.824Z,34.50
2018-09-05T19:53:26.349Z,36.30
2018-09-05T19:55:59.826Z,36.10
2018-09-05T19:58:33.303Z,35.65
2018-09-05T20:01:06.830Z,35.98
2018-09-05T20:03:40.479Z,35.92
2018-09-05T20:06:14.974Z,35.50
2018-09-05T20:08:48.435Z,34.38
2018-09-05T20:11:23.767Z,34.00
2018-09-05T20:13:57.243Z,34.83
2018-09-05T20:16:30.696Z,35.08
2018-09-05T20:19:04.154Z,34.48
2018-09-05T20:21:37.552Z,35.55
2018-09-05T20:24:10.960Z,34.98
2018-09-05T20:26:46.403Z,36.42
2018-09-05T20:29:19.798Z,36.15
2018-09-05T20:31:53.243Z,36.15
2018-09-05T20:34:27.718Z,35.55
2018-09-05T20:37:01.151Z,35.52
2018-09-05T20:39:34.653Z,35.30
2018-09-05T20:42:08.043Z,33.98
2018-09-05T20:44:41.447Z,34.20
2018-09-05T20:47:14.900Z,34.30
2018-09-05T20:49:48.372Z,34.35
2018-09-05T20:52:21.767Z,34.25
2018-09-05T20:54:55.211Z,34.15
2018-09-05T20:57:28.595Z,34.75
2018-09-05T21:00:02.080Z,35.00
2018-09-05T21:02:35.475Z,34.33
2018-09-05T21:05:08.923Z,34.88
2018-09-05T21:07:42.312Z,35.50
2018-09-05T21:10:15.723Z,34.60
2018-09-05T21:12:49.107Z,34.85
2018-09-05T21:15:22.510Z,35.92
2018-09-05T21:17:55.906Z,35.23
2018-09-05T21:20:29.314Z,35.55
2018-09-05T21:23:02.758Z,35.23
2018-09-05T21:25:36.167Z,36.15
2018-09-05T21:28:11.620Z,35.60
2018-09-05T21:30:45.026Z,35.40
2018-09-05T21:33:18.418Z,35.40
2018-09-05T21:35:51.855Z,35.10
2018-09-05T21:38:25.251Z,35.60
2018-09-05T21:40:58.664Z,36.25
2018-09-05T21:43:32.086Z,36.25
2018-09-05T21:46:05.708Z,35.90
2018-09-05T21:48:39.102Z,36.17
2018-09-05T21:51:12.542Z,36.63
2018-09-05T21:53:45.922Z,35.75
2018-09-05T21:56:19.326Z,35.75
2018-09-05T21:58:52.731Z,35.45
2018-09-05T22:01:26.143Z,35.45
2018-09-05T22:03:59.534Z,36.20
2018-09-05T22:06:32.930Z,35.43
2018-09-05T22:09:08.547Z,36.10
2018-09-05T22:11:42.062Z,35.65
2018-09-05T22:14:15.406Z,36.45
2018-09-05T22:16:48.810Z,35.78
2018-09-05T22:19:22.208Z,36.28
2018-09-05T22:21:55.610Z,35.63
2018-09-05T22:24:29.063Z,36.33
2018-09-05T22:27:02.471Z,36.38
2018-09-05T22:29:36.901Z,36.30
2018-09-05T22:32:10.302Z,35.65
2018-09-05T22:34:43.682Z,35.90
2018-09-05T22:37:17.123Z,35.30
2018-09-05T22:39:50.655Z,35.45
2018-09-05T22:42:24.058Z,36.58
2018-09-05T22:45:08.721Z,36.03
2018-09-05T22:47:57.472Z,36.38
2018-09-05T22:51:04.687Z,36.33
2018-09-05T22:56:32.189Z,35.73
2018-09-05T22:59:24.576Z,34.65
2018-09-05T23:02:13.683Z,35.08
2018-09-05T23:05:09.125Z,35.35
2018-09-05T23:08:47.336Z,34.65
2018-09-05T23:11:58.800Z,34.43
2018-09-05T23:14:43.315Z,34.65
2018-09-05T23:17:27.830Z,34.83
2018-09-05T23:22:11.869Z,34.85
2018-09-05T23:24:45.303Z,33.85
2018-09-05T23:27:19.839Z,33.88
2018-09-05T23:29:53.267Z,33.75
2018-09-05T23:32:26.667Z,33.02
2018-09-05T23:35:00.108Z,33.38
2018-09-05T23:37:33.528Z,34.23
2018-09-05T23:40:06.964Z,35.58
2018-09-05T23:42:40.379Z,35.48
2018-09-05T23:45:13.804Z,35.68
2018-09-05T23:47:47.192Z,35.78
2018-09-05T23:50:20.599Z,35.05
2018-09-05T23:52:54.005Z,35.17
2018-09-05T23:55:27.432Z,35.20
2018-09-05T23:58:00.828Z,35.17
